Time;durP1;ratioP1;P1;durP2;ratioP2;P2;SDS_P1;SDS_P2;PMS_P1;PMS_P2;Temp;Humidity;BMP_temperature;BMP_pressure;BME280_temperature;BME280_humidity;BME280_pressure;Samples;Min_cycle;Max_cycle;Signal;HPM_P1;HPM_P2
2022/01/24 00:01:28;;;;;;;12.83;10.40;;;;;;;;;;4974302;28;20592;-74
2022/01/24 00:03:57;;;;;;;11.13;9.43;;;;;;;;;;4990420;28;20217;-72
2022/01/24 00:06:28;;;;;;;11.80;9.60;;;;;;;;;;4962493;28;20221;-72
2022/01/24 00:08:54;;;;;;;10.77;9.63;;;;;;;;;;4959220;28;20723;-72
2022/01/24 00:11:24;;;;;;;11.67;9.83;;;;;;;;;;4954927;28;20277;-72
2022/01/24 00:27:27;;;;;;;8.67;7.77;;;;;;;;;;4951737;28;20609;-72
2022/01/24 00:29:52;;;;;;;8.93;8.03;;;;;;;;;;4953130;28;20223;-72
2022/01/24 00:32:23;;;;;;;8.63;7.53;;;;;;;;;;4987563;28;20296;-72
2022/01/24 00:34:49;;;;;;;7.90;7.10;;;;;;;;;;4989968;28;20213;-73
2022/01/24 00:37:20;;;;;;;7.70;6.90;;;;;;;;;;4988785;28;20297;-72
2022/01/24 00:39:48;;;;;;;10.70;7.80;;;;;;;;;;4991420;28;20240;-72
2022/01/24 00:45:06;;;;;;;7.90;7.10;;;;;;;;;;4994441;28;20221;-73
2022/01/24 00:55:49;;;;;;;6.77;6.10;;;;;;;;;;4972448;28;20581;-72
2022/01/24 00:58:16;;;;;;;6.93;5.90;;;;;;;;;;4977293;28;20220;-71
2022/01/24 01:00:47;;;;;;;7.17;5.90;;;;;;;;;;4994597;28;20217;-72
2022/01/24 01:03:13;;;;;;;9.33;6.30;;;;;;;;;;4993032;28;20260;-71
2022/01/24 01:06:02;;;;;;;6.50;5.90;;;;;;;;;;4977881;28;20737;-71
2022/01/24 01:19:03;;;;;;;6.53;5.70;;;;;;;;;;4993222;28;20721;-71
2022/01/24 01:21:29;;;;;;;6.63;5.80;;;;;;;;;;4990083;28;20628;-72
2022/01/24 01:23:59;;;;;;;6.97;5.50;;;;;;;;;;4974154;28;20665;-70
2022/01/24 01:29:09;;;;;;;6.47;5.57;;;;;;;;;;4991291;28;20221;-71
2022/01/24 01:34:32;;;;;;;6.40;5.77;;;;;;;;;;4958920;28;20731;-72
2022/01/24 01:55:48;;;;;;;6.20;5.33;;;;;;;;;;4992768;28;20217;-70
2022/01/24 01:58:16;;;;;;;5.93;5.23;;;;;;;;;;4960359;28;20291;-71
2022/01/24 02:00:52;;;;;;;5.93;4.87;;;;;;;;;;4976642;28;20245;-71
2022/01/24 02:03:21;;;;;;;5.67;5.17;;;;;;;;;;4965095;28;20276;-72
2022/01/24 02:05:51;;;;;;;5.73;5.23;;;;;;;;;;4977110;28;20225;-71
2022/01/24 02:08:23;;;;;;;6.03;5.43;;;;;;;;;;4957223;28;20621;-71
2022/01/24 02:10:54;;;;;;;5.30;4.80;;;;;;;;;;4957131;28;20218;-73
2022/01/24 02:13:22;;;;;;;5.30;4.70;;;;;;;;;;4970273;28;20308;-71
2022/01/24 02:24:06;;;;;;;5.40;4.90;;;;;;;;;;4998704;28;20225;-72
2022/01/24 02:26:34;;;;;;;5.53;5.00;;;;;;;;;;4975772;28;20225;-71
2022/01/24 02:29:09;;;;;;;5.47;4.80;;;;;;;;;;4993771;28;20253;-72
2022/01/24 02:34:16;;;;;;;5.60;4.90;;;;;;;;;;4991396;28;20225;-71
2022/01/24 02:36:44;;;;;;;6.27;4.73;;;;;;;;;;4991646;28;20252;-72
2022/01/24 02:49:58;;;;;;;7.13;5.23;;;;;;;;;;4972866;28;20246;-71
2022/01/24 02:52:31;;;;;;;6.00;5.40;;;;;;;;;;4975884;28;20225;-72
2022/01/24 02:54:56;;;;;;;6.43;5.33;;;;;;;;;;4959458;28;20213;-71
2022/01/24 02:57:26;;;;;;;6.30;5.70;;;;;;;;;;4959564;28;20225;-71
2022/01/24 02:59:54;;;;;;;5.63;5.03;;;;;;;;;;4975247;28;20225;-71
2022/01/24 03:02:19;;;;;;;5.77;5.27;;;;;;;;;;4974222;28;20295;-73
2022/01/24 03:04:45;;;;;;;6.63;5.23;;;;;;;;;;4975384;28;20221;-72
2022/01/24 03:07:10;;;;;;;6.40;5.33;;;;;;;;;;4974812;28;20240;-71
2022/01/24 03:09:36;;;;;;;7.03;5.73;;;;;;;;;;4992599;28;20225;-72
2022/01/24 03:12:07;;;;;;;6.30;5.53;;;;;;;;;;4958506;28;20699;-72
2022/01/24 03:14:34;;;;;;;5.97;4.97;;;;;;;;;;4992573;28;20738;-72
2022/01/24 03:17:00;;;;;;;6.10;5.57;;;;;;;;;;4971237;28;20222;-72
2022/01/24 03:19:26;;;;;;;6.43;5.83;;;;;;;;;;4985360;28;20802;-74
2022/01/24 03:21:52;;;;;;;8.63;5.60;;;;;;;;;;4990849;28;20241;-73
2022/01/24 03:24:18;;;;;;;7.30;5.90;;;;;;;;;;4987115;28;20633;-71
2022/01/24 03:26:48;;;;;;;8.47;6.03;;;;;;;;;;4955948;28;20217;-71
2022/01/24 03:29:16;;;;;;;7.00;6.03;;;;;;;;;;4963465;28;20244;-71
2022/01/24 03:31:45;;;;;;;7.47;5.70;;;;;;;;;;4991637;28;20218;-71
2022/01/24 03:34:14;;;;;;;6.50;5.80;;;;;;;;;;4976118;28;20230;-71
2022/01/24 03:36:46;;;;;;;7.17;6.43;;;;;;;;;;4976081;28;20914;-71
2022/01/24 03:39:12;;;;;;;7.77;6.57;;;;;;;;;;4976282;28;20233;-71
2022/01/24 03:41:39;;;;;;;9.07;6.40;;;;;;;;;;4989896;28;20272;-73
2022/01/24 03:44:08;;;;;;;7.13;6.43;;;;;;;;;;4983604;28;20217;-72
2022/01/24 03:46:48;;;;;;;7.17;6.47;;;;;;;;;;5009576;28;20237;-73
2022/01/24 03:49:45;;;;;;;6.77;6.10;;;;;;;;;;5004576;28;20230;-71
2022/01/24 03:51:59;;;;;;;6.80;6.20;;;;;;;;;;4975062;28;20233;-72
2022/01/24 03:54:27;;;;;;;7.30;6.57;;;;;;;;;;4988938;28;20300;-71
2022/01/24 03:56:53;;;;;;;6.93;6.20;;;;;;;;;;4939141;28;20312;-72
2022/01/24 03:59:23;;;;;;;7.43;6.60;;;;;;;;;;4992183;28;20213;-72
2022/01/24 04:01:48;;;;;;;7.40;6.70;;;;;;;;;;5006782;28;20224;-72
2022/01/24 04:04:16;;;;;;;6.87;6.17;;;;;;;;;;4987273;28;20762;-71
2022/01/24 04:06:44;;;;;;;7.57;6.77;;;;;;;;;;4974271;28;20233;-71
2022/01/24 04:09:14;;;;;;;7.17;6.47;;;;;;;;;;4958332;28;20256;-71
2022/01/24 04:11:40;;;;;;;7.07;6.33;;;;;;;;;;4990685;28;20240;-71
2022/01/24 04:22:16;;;;;;;7.23;6.53;;;;;;;;;;4992326;28;20225;-70
2022/01/24 04:24:45;;;;;;;7.70;6.90;;;;;;;;;;4991662;28;20839;-71
2022/01/24 04:27:13;;;;;;;7.30;6.60;;;;;;;;;;4941757;28;20694;-71
2022/01/24 04:29:41;;;;;;;7.10;6.40;;;;;;;;;;4958734;28;20229;-70
2022/01/24 04:32:07;;;;;;;6.90;6.30;;;;;;;;;;4989116;28;20301;-72
2022/01/24 04:34:32;;;;;;;7.90;7.20;;;;;;;;;;4990362;28;20217;-72
2022/01/24 04:36:58;;;;;;;7.90;7.00;;;;;;;;;;4973788;28;20233;-73
2022/01/24 04:39:24;;;;;;;7.47;6.80;;;;;;;;;;4957087;28;20304;-71
2022/01/24 04:41:53;;;;;;;7.10;6.43;;;;;;;;;;4990009;28;20801;-71
2022/01/24 04:44:45;;;;;;;7.37;6.67;;;;;;;;;;4974425;28;20289;-72
2022/01/24 04:47:22;;;;;;;7.27;6.57;;;;;;;;;;4983325;28;20255;-71
2022/01/24 04:52:48;;;;;;;7.23;6.53;;;;;;;;;;4982330;28;20216;-71
2022/01/24 04:55:16;;;;;;;7.70;6.90;;;;;;;;;;4995958;28;20237;-71
2022/01/24 04:57:42;;;;;;;8.77;7.90;;;;;;;;;;4998001;28;20247;-71
2022/01/24 05:00:15;;;;;;;7.83;7.13;;;;;;;;;;4981606;28;20217;-71
2022/01/24 05:02:41;;;;;;;7.60;6.87;;;;;;;;;;4993268;28;20218;-71
2022/01/24 05:05:08;;;;;;;7.50;6.80;;;;;;;;;;4971944;28;20762;-71
2022/01/24 05:07:36;;;;;;;7.23;6.53;;;;;;;;;;4956576;28;20218;-71
2022/01/24 05:10:25;;;;;;;6.93;6.23;;;;;;;;;;4953073;28;20612;-71
2022/01/24 05:23:34;;;;;;;8.53;5.43;;;;;;;;;;4986666;28;20252;-71
2022/01/24 05:26:01;;;;;;;5.77;5.20;;;;;;;;;;4989630;28;20253;-71
2022/01/24 05:28:26;;;;;;;5.60;5.10;;;;;;;;;;4992878;28;20769;-71
2022/01/24 05:30:55;;;;;;;6.30;5.30;;;;;;;;;;4962463;28;20222;-71
2022/01/24 05:33:21;;;;;;;5.50;5.00;;;;;;;;;;4976849;28;20229;-70
2022/01/24 05:35:46;;;;;;;5.33;4.83;;;;;;;;;;4958170;28;20213;-71
2022/01/24 05:38:17;;;;;;;5.43;4.93;;;;;;;;;;4957190;28;20237;-71
2022/01/24 05:40:45;;;;;;;5.70;4.77;;;;;;;;;;4979633;28;20213;-70
2022/01/24 05:43:13;;;;;;;5.77;5.17;;;;;;;;;;4982790;28;20225;-70
2022/01/24 05:45:46;;;;;;;5.50;5.00;;;;;;;;;;5009328;28;20225;-73
2022/01/24 05:48:11;;;;;;;5.07;4.57;;;;;;;;;;5006454;28;20488;-71
2022/01/24 05:50:37;;;;;;;5.80;4.77;;;;;;;;;;4987266;28;20314;-72
2022/01/24 05:53:05;;;;;;;5.97;5.40;;;;;;;;;;4965168;28;20229;-72
2022/01/24 05:55:33;;;;;;;5.60;5.10;;;;;;;;;;4978531;28;20304;-72
2022/01/24 05:58:01;;;;;;;5.83;5.27;;;;;;;;;;4979102;28;20225;-74
2022/01/24 06:00:29;;;;;;;6.23;4.77;;;;;;;;;;4977780;28;20257;-72
2022/01/24 06:02:54;;;;;;;5.53;5.00;;;;;;;;;;4961501;28;20235;-72
2022/01/24 06:05:22;;;;;;;5.77;5.17;;;;;;;;;;4992777;28;20222;-72
2022/01/24 06:07:50;;;;;;;5.20;4.70;;;;;;;;;;4960828;28;20217;-72
2022/01/24 06:10:15;;;;;;;5.60;5.10;;;;;;;;;;4960369;28;20265;-72
2022/01/24 06:12:45;;;;;;;5.13;4.63;;;;;;;;;;4992593;28;20218;-72
2022/01/24 06:15:13;;;;;;;4.80;4.40;;;;;;;;;;4992530;28;20236;-72
2022/01/24 06:17:39;;;;;;;5.20;4.70;;;;;;;;;;4992158;28;20312;-71
2022/01/24 06:20:05;;;;;;;5.13;4.70;;;;;;;;;;4975957;28;20309;-72
2022/01/24 06:22:36;;;;;;;5.33;4.67;;;;;;;;;;4977006;28;20222;-72
2022/01/24 06:25:05;;;;;;;5.23;4.73;;;;;;;;;;4976306;28;20225;-71
2022/01/24 06:27:33;;;;;;;5.20;4.70;;;;;;;;;;4946373;28;20233;-71
2022/01/24 06:30:03;;;;;;;5.43;4.93;;;;;;;;;;4970864;28;20221;-71
2022/01/24 06:32:29;;;;;;;5.40;4.90;;;;;;;;;;4972142;28;20226;-72
2022/01/24 06:34:54;;;;;;;6.00;5.07;;;;;;;;;;4969423;28;20406;-73
2022/01/24 06:37:20;;;;;;;6.20;5.60;;;;;;;;;;4982057;28;20789;-72
2022/01/24 06:39:50;;;;;;;7.83;5.43;;;;;;;;;;4970638;28;20226;-72
2022/01/24 06:42:22;;;;;;;6.03;5.43;;;;;;;;;;4973394;28;20241;-71
2022/01/24 06:44:54;;;;;;;6.17;5.27;;;;;;;;;;4992958;28;20225;-71
2022/01/24 06:47:20;;;;;;;5.97;5.37;;;;;;;;;;4971714;28;20222;-70
2022/01/24 06:49:49;;;;;;;7.03;5.50;;;;;;;;;;4940368;28;20218;-71
2022/01/24 06:52:15;;;;;;;6.17;5.57;;;;;;;;;;4939620;28;20246;-71
2022/01/24 06:54:41;;;;;;;5.93;5.40;;;;;;;;;;4956239;28;20229;-71
2022/01/24 06:57:09;;;;;;;6.50;5.60;;;;;;;;;;4978374;28;20277;-71
2022/01/24 06:59:36;;;;;;;6.00;5.40;;;;;;;;;;4991995;28;20687;-71
2022/01/24 07:02:02;;;;;;;6.40;5.80;;;;;;;;;;4977384;28;20236;-73
2022/01/24 07:04:28;;;;;;;5.97;5.40;;;;;;;;;;4959753;28;20300;-72
2022/01/24 07:06:53;;;;;;;6.13;5.57;;;;;;;;;;4955398;28;20226;-72
2022/01/24 07:09:24;;;;;;;6.27;5.67;;;;;;;;;;4955364;28;20230;-73
2022/01/24 07:11:51;;;;;;;7.77;5.93;;;;;;;;;;4941710;28;20309;-72
2022/01/24 07:14:19;;;;;;;6.97;5.70;;;;;;;;;;4975331;28;20616;-72
2022/01/24 07:19:16;;;;;;;7.97;6.77;;;;;;;;;;4972612;28;20692;-73
2022/01/24 07:21:42;;;;;;;7.60;6.27;;;;;;;;;;4971459;28;20218;-72
2022/01/24 07:24:07;;;;;;;6.60;6.00;;;;;;;;;;4959992;28;20227;-72
2022/01/24 07:26:35;;;;;;;8.43;5.90;;;;;;;;;;4977343;28;20229;-72
2022/01/24 07:29:06;;;;;;;7.20;5.87;;;;;;;;;;4954925;28;20234;-73
2022/01/24 07:31:31;;;;;;;6.60;5.97;;;;;;;;;;4971249;28;20607;-73
2022/01/24 07:33:57;;;;;;;6.90;6.20;;;;;;;;;;4967071;28;20226;-70
2022/01/24 07:36:26;;;;;;;7.03;6.33;;;;;;;;;;4939280;28;20304;-71
2022/01/24 07:38:52;;;;;;;7.13;6.30;;;;;;;;;;4955238;28;20797;-72
2022/01/24 07:41:24;;;;;;;8.20;6.70;;;;;;;;;;4973894;28;20305;-71
2022/01/24 07:43:50;;;;;;;7.53;6.10;;;;;;;;;;4974417;28;20225;-72
2022/01/24 07:46:15;;;;;;;7.43;6.73;;;;;;;;;;4990346;28;20230;-71
2022/01/24 07:48:41;;;;;;;7.40;6.70;;;;;;;;;;4973150;28;20237;-72
2022/01/24 07:51:09;;;;;;;7.40;6.50;;;;;;;;;;4974065;28;20229;-72
2022/01/24 07:53:35;;;;;;;7.17;6.50;;;;;;;;;;4969802;28;20217;-72
2022/01/24 07:56:01;;;;;;;8.10;7.27;;;;;;;;;;4960551;28;20780;-73
2022/01/24 07:58:29;;;;;;;8.37;7.57;;;;;;;;;;4969994;28;20227;-71
2022/01/24 08:00:55;;;;;;;9.07;7.17;;;;;;;;;;5008988;28;20229;-71
2022/01/24 08:03:20;;;;;;;7.37;6.60;;;;;;;;;;4979598;28;20313;-72
2022/01/24 08:05:46;;;;;;;7.73;7.03;;;;;;;;;;4970745;28;20224;-75
2022/01/24 08:08:12;;;;;;;12.33;8.20;;;;;;;;;;4985982;28;20218;-76
2022/01/24 08:10:38;;;;;;;8.10;7.10;;;;;;;;;;4969368;28;20224;-72
2022/01/24 08:13:07;;;;;;;9.67;6.70;;;;;;;;;;4989194;28;20248;-70
2022/01/24 08:15:33;;;;;;;8.37;7.00;;;;;;;;;;4946643;28;20225;-71
2022/01/24 08:17:58;;;;;;;8.50;7.30;;;;;;;;;;5001803;28;20228;-72
2022/01/24 08:20:24;;;;;;;7.60;6.90;;;;;;;;;;4955912;28;20221;-73
2022/01/24 08:22:50;;;;;;;8.17;7.10;;;;;;;;;;4978956;28;20731;-72
2022/01/24 08:25:16;;;;;;;8.60;7.07;;;;;;;;;;4984531;28;20225;-71
2022/01/24 08:27:42;;;;;;;7.83;7.07;;;;;;;;;;4977108;28;20300;-71
2022/01/24 08:30:27;;;;;;;10.93;9.00;;;;;;;;;;4990800;28;20244;-73
2022/01/24 08:32:53;;;;;;;9.13;7.50;;;;;;;;;;4990273;28;20231;-72
2022/01/24 08:35:19;;;;;;;7.77;6.97;;;;;;;;;;4970085;28;20233;-70
2022/01/24 08:37:45;;;;;;;7.77;7.00;;;;;;;;;;4938811;28;20253;-70
2022/01/24 08:40:25;;;;;;;8.23;7.43;;;;;;;;;;4971627;28;20241;-71
2022/01/24 08:43:05;;;;;;;8.03;7.07;;;;;;;;;;4975242;28;20817;-71
2022/01/24 08:45:58;;;;;;;8.57;7.67;;;;;;;;;;4924795;28;20218;-71
2022/01/24 08:48:24;;;;;;;8.90;7.37;;;;;;;;;;4961408;28;20229;-72
2022/01/24 08:50:54;;;;;;;8.00;7.20;;;;;;;;;;4974128;28;20221;-72
2022/01/24 08:53:19;;;;;;;8.73;7.77;;;;;;;;;;4956101;28;20229;-72
2022/01/24 08:55:45;;;;;;;7.83;7.13;;;;;;;;;;4964315;28;20229;-71
2022/01/24 08:58:15;;;;;;;8.40;7.30;;;;;;;;;;5006666;28;20229;-71
2022/01/24 09:00:44;;;;;;;7.17;6.47;;;;;;;;;;4958249;28;20773;-70
2022/01/24 09:03:11;;;;;;;8.80;6.70;;;;;;;;;;4974776;28;20249;-70
2022/01/24 09:05:37;;;;;;;7.87;7.07;;;;;;;;;;4959709;28;20304;-71
2022/01/24 09:08:05;;;;;;;7.87;7.07;;;;;;;;;;4977229;28;20234;-72
2022/01/24 09:10:34;;;;;;;8.80;7.90;;;;;;;;;;4959275;28;20241;-71
2022/01/24 09:13:02;;;;;;;8.80;7.30;;;;;;;;;;4969227;28;20228;-71
2022/01/24 09:15:28;;;;;;;8.10;7.30;;;;;;;;;;4976412;28;20229;-71
2022/01/24 09:17:54;;;;;;;8.30;7.50;;;;;;;;;;4969483;28;20612;-71
2022/01/24 09:20:23;;;;;;;8.47;7.00;;;;;;;;;;4997491;28;20240;-71
2022/01/24 09:22:49;;;;;;;8.07;7.27;;;;;;;;;;4981532;28;20229;-71
2022/01/24 09:25:16;;;;;;;8.57;7.73;;;;;;;;;;4986357;28;20252;-70
2022/01/24 09:27:42;;;;;;;7.87;6.97;;;;;;;;;;4977888;28;20225;-70
2022/01/24 09:30:09;;;;;;;8.17;7.37;;;;;;;;;;4956945;28;20230;-71
2022/01/24 09:32:37;;;;;;;8.33;7.27;;;;;;;;;;4958365;28;20222;-71
2022/01/24 09:35:04;;;;;;;11.07;7.83;;;;;;;;;;4974828;28;20221;-71
2022/01/24 09:37:34;;;;;;;9.63;7.63;;;;;;;;;;4976887;28;20229;-71
2022/01/24 09:40:02;;;;;;;8.73;7.07;;;;;;;;;;4957695;28;20662;-73
2022/01/24 09:42:27;;;;;;;8.80;7.73;;;;;;;;;;4957632;28;20309;-71
2022/01/24 09:44:53;;;;;;;8.00;7.17;;;;;;;;;;4959455;28;20316;-71
2022/01/24 09:47:19;;;;;;;8.83;7.50;;;;;;;;;;4974621;28;20610;-72
2022/01/24 09:49:48;;;;;;;8.57;7.57;;;;;;;;;;4955142;28;20365;-70
2022/01/24 09:52:17;;;;;;;8.07;7.27;;;;;;;;;;4985493;28;20232;-71
2022/01/24 09:54:43;;;;;;;8.20;7.40;;;;;;;;;;4972271;28;20296;-70
2022/01/24 09:57:09;;;;;;;8.27;6.97;;;;;;;;;;4961775;28;20226;-71
2022/01/24 09:59:35;;;;;;;8.77;7.17;;;;;;;;;;4958496;28;20718;-71
2022/01/24 10:02:01;;;;;;;7.43;6.70;;;;;;;;;;4994454;28;20225;-71
2022/01/24 10:04:29;;;;;;;8.70;6.83;;;;;;;;;;4980413;28;20231;-72
2022/01/24 10:07:05;;;;;;;10.57;9.47;;;;;;;;;;4962503;28;20797;-71
2022/01/24 10:09:53;;;;;;;8.27;7.20;;;;;;;;;;4993246;28;20236;-71
2022/01/24 10:17:37;;;;;;;7.83;7.03;;;;;;;;;;4978935;28;20225;-72
2022/01/24 10:20:22;;;;;;;7.90;7.20;;;;;;;;;;4973025;28;20226;-71
2022/01/24 10:23:10;;;;;;;7.57;6.73;;;;;;;;;;4976987;28;20249;-71
2022/01/24 10:25:50;;;;;;;8.60;7.60;;;;;;;;;;4987594;28;20308;-71
2022/01/24 10:28:25;;;;;;;12.07;7.63;;;;;;;;;;4991545;28;20228;-70
2022/01/24 10:31:24;;;;;;;9.80;7.53;;;;;;;;;;4981070;28;20221;-72
2022/01/24 10:34:06;;;;;;;9.17;7.60;;;;;;;;;;4956534;28;20226;-72
2022/01/24 10:36:51;;;;;;;8.30;7.50;;;;;;;;;;4974828;28;20227;-72
2022/01/24 10:39:31;;;;;;;8.63;7.73;;;;;;;;;;4983719;28;20221;-71
2022/01/24 10:45:14;;;;;;;8.23;7.43;;;;;;;;;;5003962;28;20308;-72
2022/01/24 10:47:48;;;;;;;8.37;7.57;;;;;;;;;;4993930;28;20257;-72
2022/01/24 10:50:28;;;;;;;9.90;8.40;;;;;;;;;;4954711;28;20315;-71
2022/01/24 10:52:53;;;;;;;9.97;8.97;;;;;;;;;;4956395;28;20232;-70
2022/01/24 10:55:24;;;;;;;9.40;8.43;;;;;;;;;;4966724;28;20226;-71
2022/01/24 10:58:14;;;;;;;10.30;8.43;;;;;;;;;;4975460;28;20274;-71
2022/01/24 11:00:41;;;;;;;9.23;7.90;;;;;;;;;;4996113;28;20224;-72
2022/01/24 11:03:18;;;;;;;8.70;7.80;;;;;;;;;;4990912;28;20286;-72
2022/01/24 11:05:44;;;;;;;8.43;7.20;;;;;;;;;;4962086;28;20691;-73
2022/01/24 11:08:14;;;;;;;8.67;7.77;;;;;;;;;;4959169;28;20232;-72
2022/01/24 11:10:47;;;;;;;9.13;8.23;;;;;;;;;;4960213;28;20292;-72
2022/01/24 11:13:13;;;;;;;9.30;8.17;;;;;;;;;;4975208;28;20252;-72
2022/01/24 11:15:42;;;;;;;9.43;8.23;;;;;;;;;;4974943;28;20221;-72
2022/01/24 11:18:09;;;;;;;8.60;7.70;;;;;;;;;;4982312;28;20234;-72
2022/01/24 11:20:44;;;;;;;9.13;8.20;;;;;;;;;;4992136;28;20225;-72
2022/01/24 11:23:10;;;;;;;9.63;8.50;;;;;;;;;;4984628;28;20739;-74
2022/01/24 11:25:43;;;;;;;8.87;8.07;;;;;;;;;;4980181;28;20220;-73
2022/01/24 11:28:09;;;;;;;11.17;8.07;;;;;;;;;;4978229;28;20217;-72
2022/01/24 11:30:45;;;;;;;8.97;8.07;;;;;;;;;;4947973;28;20722;-72
2022/01/24 11:33:21;;;;;;;9.63;8.60;;;;;;;;;;4956827;28;20749;-72
2022/01/24 11:35:55;;;;;;;10.00;9.00;;;;;;;;;;4932786;28;20221;-71
2022/01/24 11:38:38;;;;;;;10.37;8.20;;;;;;;;;;4970717;28;20237;-72
2022/01/24 11:41:06;;;;;;;9.40;8.50;;;;;;;;;;4955961;28;20242;-72
2022/01/24 11:43:35;;;;;;;10.23;8.63;;;;;;;;;;4974240;28;20716;-72
2022/01/24 11:46:25;;;;;;;9.17;8.27;;;;;;;;;;4959690;28;20866;-73
2022/01/24 11:49:04;;;;;;;9.33;8.33;;;;;;;;;;4943122;28;20723;-73
2022/01/24 11:51:33;;;;;;;9.93;8.80;;;;;;;;;;4953941;28;20222;-73
2022/01/24 11:53:59;;;;;;;9.67;8.67;;;;;;;;;;4945977;28;20230;-72
2022/01/24 11:56:31;;;;;;;10.07;8.77;;;;;;;;;;4955155;28;20258;-73
2022/01/24 11:59:19;;;;;;;9.63;8.67;;;;;;;;;;4939731;28;20220;-72
2022/01/24 12:01:52;;;;;;;9.47;8.37;;;;;;;;;;4972481;28;20723;-72
2022/01/24 12:04:47;;;;;;;12.03;8.60;;;;;;;;;;4971402;28;20214;-73
2022/01/24 12:07:23;;;;;;;8.70;7.90;;;;;;;;;;4944826;28;20285;-71
2022/01/24 12:09:53;;;;;;;9.20;8.30;;;;;;;;;;4956428;28;20225;-72
2022/01/24 12:12:38;;;;;;;10.03;9.03;;;;;;;;;;4935241;28;20242;-73
2022/01/24 12:15:07;;;;;;;10.50;9.40;;;;;;;;;;4990277;28;20218;-71
2022/01/24 12:17:50;;;;;;;9.33;8.33;;;;;;;;;;4983896;28;20212;-72
2022/01/24 12:20:31;;;;;;;9.53;8.37;;;;;;;;;;4980178;28;20209;-72
2022/01/24 12:23:19;;;;;;;9.53;8.63;;;;;;;;;;4998507;28;20220;-72
2022/01/24 12:25:57;;;;;;;9.53;8.43;;;;;;;;;;5014373;28;20227;-73
2022/01/24 12:28:24;;;;;;;10.17;9.07;;;;;;;;;;4979411;28;20228;-71
2022/01/24 12:31:04;;;;;;;11.47;10.27;;;;;;;;;;4983780;28;20308;-72
2022/01/24 12:33:40;;;;;;;11.30;10.10;;;;;;;;;;4981790;28;20228;-73
2022/01/24 12:36:08;;;;;;;11.83;10.60;;;;;;;;;;4999568;28;20255;-71
2022/01/24 12:38:46;;;;;;;10.53;9.40;;;;;;;;;;5004557;28;20315;-72
2022/01/24 12:41:18;;;;;;;11.53;10.33;;;;;;;;;;4984866;28;20258;-70
2022/01/24 12:46:28;;;;;;;10.67;9.50;;;;;;;;;;5003862;28;20225;-71
2022/01/24 12:48:55;;;;;;;9.30;8.40;;;;;;;;;;4987184;28;20225;-71
2022/01/24 12:51:21;;;;;;;9.67;8.70;;;;;;;;;;4967215;28;20236;-71
2022/01/24 12:53:48;;;;;;;10.03;8.00;;;;;;;;;;4965864;28;20711;-72
2022/01/24 12:56:16;;;;;;;9.60;8.70;;;;;;;;;;4972453;28;20228;-71
2022/01/24 12:58:44;;;;;;;10.07;9.17;;;;;;;;;;4975383;28;20268;-71
2022/01/24 13:01:35;;;;;;;10.67;9.57;;;;;;;;;;4968429;28;21680;-72
2022/01/24 13:04:10;;;;;;;10.83;9.57;;;;;;;;;;4984989;28;20304;-70
2022/01/24 13:06:40;;;;;;;10.37;9.27;;;;;;;;;;4982664;28;20220;-70
2022/01/24 13:09:16;;;;;;;11.63;10.43;;;;;;;;;;4983129;28;20226;-71
2022/01/24 13:11:56;;;;;;;9.83;8.93;;;;;;;;;;4956946;28;20256;-72
2022/01/24 13:25:08;;;;;;;12.93;11.67;;;;;;;;;;4983324;28;20245;-70
2022/01/24 13:27:46;;;;;;;11.73;10.63;;;;;;;;;;4959380;28;20224;-71
2022/01/24 13:30:22;;;;;;;11.63;10.50;;;;;;;;;;4973380;28;20230;-73
2022/01/24 13:32:56;;;;;;;12.37;11.23;;;;;;;;;;4957791;28;20224;-71
2022/01/24 13:35:35;;;;;;;12.30;11.10;;;;;;;;;;4944309;28;21200;-72
2022/01/24 13:38:05;;;;;;;11.37;10.17;;;;;;;;;;4976098;28;20260;-71
2022/01/24 13:41:23;;;;;;;12.10;11.00;;;;;;;;;;4966294;28;20249;-74
2022/01/24 13:44:04;;;;;;;12.70;11.47;;;;;;;;;;4996982;28;20220;-72
2022/01/24 13:46:40;;;;;;;11.53;10.47;;;;;;;;;;4990357;28;20296;-73
2022/01/24 13:49:10;;;;;;;12.87;11.57;;;;;;;;;;4966912;28;20232;-72
2022/01/24 13:51:48;;;;;;;13.03;11.73;;;;;;;;;;4960524;28;20233;-73
2022/01/24 13:54:20;;;;;;;13.00;11.60;;;;;;;;;;5011616;28;20218;-71
2022/01/24 13:56:50;;;;;;;12.47;11.20;;;;;;;;;;4972256;28;20223;-72
2022/01/24 13:59:18;;;;;;;11.17;10.13;;;;;;;;;;4989132;28;20220;-70
2022/01/24 14:02:04;;;;;;;12.23;11.03;;;;;;;;;;5000940;28;20220;-72
2022/01/24 14:04:34;;;;;;;13.80;12.40;;;;;;;;;;4992994;28;20296;-71
2022/01/24 14:07:05;;;;;;;13.77;12.37;;;;;;;;;;4991622;28;20221;-71
2022/01/24 14:09:41;;;;;;;16.60;12.43;;;;;;;;;;4975088;28;20311;-72
2022/01/24 14:12:10;;;;;;;12.07;10.97;;;;;;;;;;5009649;28;20228;-72
2022/01/24 14:14:48;;;;;;;12.33;11.13;;;;;;;;;;4956265;28;20256;-72
2022/01/24 14:19:43;;;;;;;12.67;11.37;;;;;;;;;;4952796;28;20764;-72
2022/01/24 14:22:11;;;;;;;13.27;12.00;;;;;;;;;;4956562;28;20226;-71
2022/01/24 14:24:56;;;;;;;13.00;11.80;;;;;;;;;;4984114;28;20747;-72
2022/01/24 14:27:42;;;;;;;14.00;12.67;;;;;;;;;;4955646;28;20228;-71
2022/01/24 14:30:20;;;;;;;13.40;12.00;;;;;;;;;;4960605;28;20233;-71
2022/01/24 14:33:18;;;;;;;14.70;13.20;;;;;;;;;;4976590;28;20229;-72
2022/01/24 14:36:00;;;;;;;14.70;12.53;;;;;;;;;;4989103;28;20217;-71
2022/01/24 14:38:35;;;;;;;14.13;12.73;;;;;;;;;;4992121;28;20283;-72
2022/01/24 14:41:14;;;;;;;14.73;13.23;;;;;;;;;;4973239;28;20308;-71
2022/01/24 14:46:39;;;;;;;13.87;12.47;;;;;;;;;;4971472;28;20623;-71
2022/01/24 14:49:11;;;;;;;13.50;12.17;;;;;;;;;;4979796;28;20510;-70
2022/01/24 14:51:44;;;;;;;14.13;12.67;;;;;;;;;;5000009;28;20307;-71
2022/01/24 14:54:15;;;;;;;13.57;12.23;;;;;;;;;;4975683;28;20229;-72
2022/01/24 14:56:44;;;;;;;13.80;12.30;;;;;;;;;;4960075;28;20240;-70
2022/01/24 14:59:13;;;;;;;13.47;12.17;;;;;;;;;;4974016;28;20578;-72
2022/01/24 15:01:38;;;;;;;14.70;13.23;;;;;;;;;;4944238;28;20588;-71
2022/01/24 15:04:04;;;;;;;15.60;14.00;;;;;;;;;;4971209;28;20232;-72
2022/01/24 15:06:34;;;;;;;14.67;13.27;;;;;;;;;;4990214;28;20213;-71
2022/01/24 15:09:05;;;;;;;17.03;15.33;;;;;;;;;;4978927;28;20240;-72
2022/01/24 15:11:32;;;;;;;15.97;14.27;;;;;;;;;;4961377;28;20232;-71
2022/01/24 15:14:12;;;;;;;16.03;14.33;;;;;;;;;;4991714;28;20225;-71
2022/01/24 15:16:57;;;;;;;14.93;13.43;;;;;;;;;;4998190;28;20236;-72
2022/01/24 15:27:39;;;;;;;14.87;13.27;;;;;;;;;;5006626;28;20220;-71
2022/01/24 15:30:05;;;;;;;13.93;12.63;;;;;;;;;;5006064;28;20296;-74
2022/01/24 15:32:31;;;;;;;14.33;12.83;;;;;;;;;;4978244;28;20213;-72
2022/01/24 15:34:57;;;;;;;15.00;13.50;;;;;;;;;;4952686;28;20227;-72
2022/01/24 15:37:25;;;;;;;16.13;14.53;;;;;;;;;;4972750;28;20238;-71
2022/01/24 15:39:53;;;;;;;14.63;13.23;;;;;;;;;;4983297;28;20252;-72
2022/01/24 15:42:31;;;;;;;15.63;13.97;;;;;;;;;;4992795;28;20256;-71
2022/01/24 15:45:24;;;;;;;15.03;13.53;;;;;;;;;;4962230;28;20217;-71
2022/01/24 15:47:45;;;;;;;16.63;14.93;;;;;;;;;;4991864;28;20661;-72
2022/01/24 15:50:15;;;;;;;15.00;13.50;;;;;;;;;;4963336;28;20230;-72
2022/01/24 15:52:43;;;;;;;13.63;12.23;;;;;;;;;;4957377;28;20741;-71
2022/01/24 15:55:11;;;;;;;14.73;13.23;;;;;;;;;;5011053;28;20299;-72
2022/01/24 15:57:41;;;;;;;15.13;13.53;;;;;;;;;;4948112;28;20231;-73
2022/01/24 16:00:13;;;;;;;14.97;12.43;;;;;;;;;;4953611;28;20699;-73
2022/01/24 16:02:43;;;;;;;13.83;11.57;;;;;;;;;;5004932;28;20223;-73
2022/01/24 16:05:10;;;;;;;14.53;13.03;;;;;;;;;;5011058;28;20252;-72
2022/01/24 16:07:38;;;;;;;13.67;12.23;;;;;;;;;;4966937;28;20303;-71
2022/01/24 16:10:10;;;;;;;14.13;12.67;;;;;;;;;;4994844;28;20218;-72
2022/01/24 16:12:40;;;;;;;14.63;13.13;;;;;;;;;;5001036;28;20225;-70
2022/01/24 16:15:08;;;;;;;15.43;13.70;;;;;;;;;;4989406;28;20225;-73
2022/01/24 16:17:36;;;;;;;17.90;16.03;;;;;;;;;;4991491;28;20221;-71
2022/01/24 16:20:10;;;;;;;19.93;17.83;;;;;;;;;;4962140;28;20222;-72
2022/01/24 16:22:58;;;;;;;24.43;21.93;;;;;;;;;;4965301;28;20225;-72
2022/01/24 16:27:59;;;;;;;20.47;18.33;;;;;;;;;;4984600;28;20252;-72
2022/01/24 16:30:27;;;;;;;23.23;20.73;;;;;;;;;;5008196;28;20244;-71
2022/01/24 16:32:58;;;;;;;26.17;21.70;;;;;;;;;;4976111;28;20236;-71
2022/01/24 16:35:27;;;;;;;25.87;22.57;;;;;;;;;;4989759;28;20228;-72
2022/01/24 16:37:55;;;;;;;23.97;19.37;;;;;;;;;;4940231;28;20317;-72
2022/01/24 16:40:27;;;;;;;20.53;17.67;;;;;;;;;;5000289;28;20248;-71
2022/01/24 16:43:10;;;;;;;16.07;14.47;;;;;;;;;;4990075;28;20269;-72
2022/01/24 16:48:23;;;;;;;23.23;19.07;;;;;;;;;;5010845;28;20786;-71
2022/01/24 16:50:51;;;;;;;19.87;17.77;;;;;;;;;;4978312;28;20220;-71
2022/01/24 16:53:19;;;;;;;19.47;16.90;;;;;;;;;;5007074;28;20630;-72
2022/01/24 16:55:45;;;;;;;22.50;18.77;;;;;;;;;;4976015;28;20220;-70
2022/01/24 16:58:13;;;;;;;20.50;18.40;;;;;;;;;;4969726;28;20231;-71
2022/01/24 17:00:39;;;;;;;54.67;42.63;;;;;;;;;;4974099;28;20218;-70
2022/01/24 17:03:06;;;;;;;21.83;19.50;;;;;;;;;;4970716;28;20225;-71
2022/01/24 17:05:32;;;;;;;21.50;17.23;;;;;;;;;;4975250;28;20221;-71
2022/01/24 17:07:58;;;;;;;20.03;17.10;;;;;;;;;;4971906;28;20230;-71
2022/01/24 17:10:26;;;;;;;16.93;14.20;;;;;;;;;;4971689;28;20338;-71
2022/01/24 17:12:58;;;;;;;17.00;14.17;;;;;;;;;;4980570;28;20214;-72
2022/01/24 17:15:23;;;;;;;15.90;14.20;;;;;;;;;;4971461;28;20754;-70
2022/01/24 17:17:51;;;;;;;17.60;14.63;;;;;;;;;;4967693;28;20218;-72
2022/01/24 17:20:19;;;;;;;18.43;16.33;;;;;;;;;;4973915;28;20236;-71
2022/01/24 17:22:47;;;;;;;17.97;16.03;;;;;;;;;;4960468;28;20225;-71